createdAt,value
2022-09-21T00:01:04.136Z,0.99
2022-09-21T00:03:45.112Z,0.90
2022-09-21T00:06:22.353Z,0.94
2022-09-21T00:09:03.126Z,0.90
2022-09-21T00:11:39.164Z,0.92
2022-09-21T00:14:19.013Z,0.97
2022-09-21T00:16:52.154Z,0.96
2022-09-21T00:29:42.090Z,1.06
2022-09-21T00:32:22.132Z,1.03
2022-09-21T00:34:55.145Z,0.96
2022-09-21T00:37:21.701Z,1.19
2022-09-21T00:40:02.127Z,0.96
2022-09-21T00:56:40.086Z,0.80
2022-09-21T00:59:29.432Z,0.86
2022-09-21T01:02:03.951Z,0.87
2022-09-21T01:04:38.119Z,0.78
2022-09-21T01:07:17.672Z,0.82
2022-09-21T01:10:03.102Z,0.87
2022-09-21T01:23:49.120Z,0.77
2022-09-21T01:26:53.427Z,0.73
2022-09-21T01:29:44.147Z,0.89
2022-09-21T01:32:29.408Z,0.82
2022-09-21T01:35:16.124Z,0.81
2022-09-21T01:48:32.106Z,0.85
2022-09-21T01:51:11.720Z,0.75
2022-09-21T01:53:59.123Z,0.79
2022-09-21T01:56:38.337Z,0.75
2022-09-21T01:59:34.096Z,0.73
2022-09-21T02:02:16.423Z,0.73
2022-09-21T02:15:15.068Z,0.73
2022-09-21T02:18:13.593Z,0.77
2022-09-21T02:20:56.528Z,0.77
2022-09-21T02:23:49.082Z,0.87
2022-09-21T02:26:32.995Z,0.86
2022-09-21T02:29:24.089Z,0.90
2022-09-21T02:32:08.331Z,0.72
2022-09-21T02:41:55.113Z,0.84
2022-09-21T02:44:36.135Z,0.87
2022-09-21T02:47:26.097Z,0.89
2022-09-21T02:50:07.210Z,0.85
2022-09-21T02:52:50.115Z,0.92
2022-09-21T02:55:25.645Z,0.92
2022-09-21T03:08:31.072Z,0.85
2022-09-21T03:11:11.098Z,0.95
2022-09-21T03:13:44.474Z,0.92
2022-09-21T03:16:19.135Z,0.93
2022-09-21T03:18:52.213Z,0.97
2022-09-21T03:21:18.760Z,0.94
2022-09-21T03:35:09.058Z,1.07
2022-09-21T03:37:51.911Z,1.08
2022-09-21T03:40:25.611Z,1.06
2022-09-21T03:42:59.093Z,0.99
2022-09-21T03:45:32.220Z,0.94
2022-09-21T03:48:08.116Z,0.97
2022-09-21T03:50:41.866Z,1.08
2022-09-21T04:03:31.053Z,1.31
2022-09-21T04:06:15.088Z,1.16
2022-09-21T04:08:48.124Z,1.17
2022-09-21T04:11:24.094Z,1.32
2022-09-21T04:13:57.319Z,1.37
2022-09-21T04:16:32.085Z,1.33
2022-09-21T04:29:44.595Z,1.41
2022-09-21T04:32:18.132Z,1.37
2022-09-21T04:34:51.073Z,1.44
2022-09-21T04:37:24.354Z,1.42
2022-09-21T04:39:50.933Z,1.54
2022-09-21T04:42:31.065Z,1.52
2022-09-21T04:55:42.086Z,1.65
2022-09-21T04:58:15.113Z,1.39
2022-09-21T05:00:41.701Z,1.61
2022-09-21T05:03:22.141Z,1.53
2022-09-21T05:05:57.113Z,1.55
2022-09-21T05:08:33.066Z,1.58
2022-09-21T05:11:12.049Z,1.74
2022-09-21T05:24:07.054Z,1.64
2022-09-21T05:26:49.153Z,1.71
2022-09-21T05:29:23.232Z,1.81
2022-09-21T05:32:03.929Z,1.50
2022-09-21T05:34:52.723Z,1.70
2022-09-21T05:51:15.060Z,1.95
2022-09-21T05:54:06.790Z,1.93
2022-09-21T05:57:00.084Z,1.78
2022-09-21T05:59:48.145Z,1.70
2022-09-21T06:15:49.064Z,1.83
2022-09-21T06:18:22.190Z,1.88
2022-09-21T06:20:48.778Z,1.80
2022-09-21T06:23:29.146Z,1.84
2022-09-21T06:26:02.253Z,1.76
2022-09-21T06:28:28.889Z,1.98
2022-09-21T06:31:11.113Z,2.04
2022-09-21T06:44:21.058Z,2.07
2022-09-21T06:46:56.418Z,2.27
2022-09-21T06:49:30.069Z,2.08
2022-09-21T06:52:03.274Z,2.18
2022-09-21T06:54:29.899Z,2.18
2022-09-21T06:57:10.054Z,2.18
2022-09-21T07:10:22.075Z,2.07
2022-09-21T07:12:55.377Z,2.31
2022-09-21T07:15:21.937Z,2.51
2022-09-21T07:18:05.778Z,2.34
2022-09-21T07:20:39.536Z,2.44
2022-09-21T07:36:54.082Z,2.85
2022-09-21T07:39:27.091Z,2.72
2022-09-21T07:41:53.640Z,2.86
2022-09-21T07:44:34.909Z,2.94
2022-09-21T07:47:08.113Z,3.01
2022-09-21T07:49:41.054Z,2.99
2022-09-21T07:52:16.136Z,2.91
2022-09-21T08:05:04.046Z,3.44
2022-09-21T08:07:46.071Z,3.43
2022-09-21T08:10:19.129Z,3.55
2022-09-21T08:12:45.681Z,3.49
2022-09-21T08:15:47.502Z,3.64
2022-09-21T08:29:37.042Z,3.81
2022-09-21T08:32:15.825Z,4.15
2022-09-21T08:35:03.057Z,4.32
2022-09-21T08:37:36.150Z,3.86
2022-09-21T08:40:10.098Z,4.13
2022-09-21T08:57:04.999Z,4.24
2022-09-21T08:59:52.047Z,4.36
2022-09-21T09:02:56.036Z,4.44
2022-09-21T09:05:52.040Z,4.91
2022-09-21T09:09:09.437Z,4.49
2022-09-21T09:12:16.073Z,4.21
2022-09-21T09:25:29.054Z,3.96
2022-09-21T09:28:22.682Z,3.94
2022-09-21T09:31:11.056Z,3.80
2022-09-21T09:33:54.902Z,4.18
2022-09-21T09:36:57.963Z,3.81
2022-09-21T09:52:22.017Z,4.18
2022-09-21T09:55:02.021Z,4.12
2022-09-21T09:57:35.440Z,4.35
2022-09-21T10:00:14.033Z,4.42
2022-09-21T10:02:50.298Z,4.31
2022-09-21T10:05:31.037Z,4.38
2022-09-21T10:18:51.058Z,3.83
2022-09-21T10:21:32.386Z,4.33
2022-09-21T10:24:22.045Z,3.85
2022-09-21T10:27:04.809Z,3.66
2022-09-21T10:29:48.065Z,3.42
2022-09-21T10:32:24.821Z,3.54
2022-09-21T10:45:25.002Z,3.13
2022-09-21T10:48:20.045Z,3.03
2022-09-21T10:50:55.594Z,2.81
2022-09-21T10:53:34.886Z,2.58
2022-09-21T10:56:17.720Z,2.71
2022-09-21T11:09:58.012Z,2.44
2022-09-21T11:12:58.026Z,2.25
2022-09-21T11:15:44.118Z,2.36
2022-09-21T11:18:41.047Z,2.16
2022-09-21T11:21:29.732Z,2.27
2022-09-21T11:24:33.044Z,2.23
2022-09-21T11:27:14.882Z,2.32
2022-09-21T11:37:09.032Z,1.86
2022-09-21T11:40:05.896Z,2.03
2022-09-21T11:43:14.031Z,1.88
2022-09-21T11:46:01.010Z,2.07
2022-09-21T11:49:13.046Z,1.94
2022-09-21T11:52:09.522Z,1.95
2022-09-21T12:05:17.998Z,1.86
2022-09-21T12:08:29.026Z,1.95
2022-09-21T12:11:18.666Z,2.08
2022-09-21T12:14:14.033Z,1.79
2022-09-21T12:16:56.722Z,1.79
2022-09-21T12:30:25.043Z,1.85
2022-09-21T12:33:14.036Z,1.92
2022-09-21T12:36:03.054Z,1.90
2022-09-21T12:38:52.051Z,1.97
2022-09-21T12:41:36.820Z,1.84
2022-09-21T12:44:30.027Z,1.77
2022-09-21T12:47:13.051Z,1.83
2022-09-21T12:57:29.797Z,1.65
2022-09-21T13:00:12.617Z,1.65
2022-09-21T13:03:07.041Z,1.64
2022-09-21T13:06:14.982Z,1.87
2022-09-21T13:08:57.045Z,1.69
2022-09-21T13:11:33.893Z,1.67
2022-09-21T13:24:36.024Z,1.62
2022-09-21T13:27:16.039Z,1.83
2022-09-21T13:30:22.967Z,1.97
2022-09-21T13:33:03.036Z,1.72
2022-09-21T13:36:00.347Z,1.33
2022-09-21T13:52:44.021Z,1.41
2022-09-21T13:55:27.752Z,1.45
2022-09-21T13:58:12.547Z,1.33
2022-09-21T14:00:55.495Z,1.60
2022-09-21T14:03:44.035Z,1.49
2022-09-21T14:06:24.553Z,1.36
2022-09-21T14:20:12.995Z,1.60
2022-09-21T14:22:55.041Z,1.66
2022-09-21T14:25:51.159Z,1.69
2022-09-21T14:28:40.029Z,1.32
2022-09-21T14:31:20.392Z,1.43
2022-09-21T14:44:27.002Z,1.44
2022-09-21T14:47:29.037Z,1.50
2022-09-21T14:50:23.605Z,1.48
2022-09-21T14:53:35.014Z,1.38
2022-09-21T14:56:29.698Z,1.38
2022-09-21T15:13:05.048Z,1.41
2022-09-21T15:15:48.181Z,1.49
2022-09-21T15:18:29.017Z,1.36
2022-09-21T15:21:04.001Z,1.38
2022-09-21T15:23:42.034Z,1.50
2022-09-21T15:26:20.873Z,1.39
2022-09-21T15:39:32.984Z,1.64
2022-09-21T15:42:26.017Z,1.30
2022-09-21T15:45:14.561Z,1.42
2022-09-21T15:47:55.055Z,1.42
2022-09-21T15:50:29.266Z,1.38
2022-09-21T16:06:44.030Z,1.48
2022-09-21T16:09:40.709Z,1.41
2022-09-21T16:12:47.005Z,1.34
2022-09-21T16:15:27.275Z,1.43
2022-09-21T16:31:37.033Z,1.28
2022-09-21T16:34:23.399Z,1.37
2022-09-21T16:37:03.032Z,1.33
2022-09-21T16:39:36.072Z,1.49
2022-09-21T16:42:11.110Z,1.40
2022-09-21T16:44:44.359Z,1.45
2022-09-21T16:47:23.038Z,1.28
2022-09-21T16:57:51.977Z,1.66
2022-09-21T17:00:38.960Z,1.69
2022-09-21T17:03:14.060Z,1.75
2022-09-21T17:05:47.027Z,1.66
2022-09-21T17:08:20.092Z,1.62
2022-09-21T17:10:46.633Z,2.00
2022-09-21T17:24:49.166Z,3.11
2022-09-21T17:27:32.038Z,3.20
2022-09-21T17:30:12.735Z,3.08
2022-09-21T17:32:53.025Z,2.86
2022-09-21T17:35:32.829Z,2.81
2022-09-21T17:51:27.045Z,2.34
2022-09-21T17:54:00.970Z,2.26
2022-09-21T17:56:48.999Z,2.34
2022-09-21T17:59:31.434Z,2.19
2022-09-21T18:02:30.080Z,2.22
2022-09-21T18:05:18.952Z,2.01
2022-09-21T18:08:02.026Z,2.25
2022-09-21T18:18:20.001Z,2.08
2022-09-21T18:21:09.008Z,2.30
2022-09-21T18:24:07.055Z,2.30
2022-09-21T18:26:47.013Z,2.29
2022-09-21T18:29:39.305Z,2.23
2022-09-21T18:32:54.033Z,2.26
2022-09-21T18:46:13.337Z,2.48
2022-09-21T18:48:59.424Z,2.40
2022-09-21T18:51:50.031Z,2.46
2022-09-21T18:54:25.170Z,2.59
2022-09-21T18:56:59.014Z,2.70
2022-09-21T19:13:50.978Z,2.62
2022-09-21T19:16:40.043Z,2.66
2022-09-21T19:19:30.573Z,2.78
2022-09-21T19:22:21.024Z,2.51
2022-09-21T19:25:04.261Z,2.85
2022-09-21T19:27:47.006Z,2.64
2022-09-21T19:38:16.992Z,2.69
2022-09-21T19:41:08.993Z,2.62
2022-09-21T19:43:54.954Z,2.65
2022-09-21T19:46:48.010Z,2.57
2022-09-21T19:49:34.034Z,2.34
2022-09-21T19:52:22.020Z,2.34
2022-09-21T20:05:47.233Z,2.07
2022-09-21T20:08:29.129Z,2.15
2022-09-21T20:11:18.021Z,2.21
2022-09-21T20:14:15.335Z,2.03
2022-09-21T20:16:59.048Z,2.03
2022-09-21T20:19:50.761Z,2.10
2022-09-21T20:22:44.016Z,2.29
2022-09-21T20:32:28.960Z,2.31
2022-09-21T20:35:09.002Z,2.34
2022-09-21T20:37:44.915Z,2.28
2022-09-21T20:40:19.080Z,2.12
2022-09-21T20:42:52.688Z,2.33
2022-09-21T20:45:25.980Z,2.37
2022-09-21T20:47:59.058Z,2.45
2022-09-21T21:00:47.975Z,2.53
2022-09-21T21:03:27.984Z,2.32
2022-09-21T21:06:09.646Z,2.57
2022-09-21T21:08:50.837Z,2.38
2022-09-21T21:11:24.238Z,2.37
2022-09-21T21:27:38.010Z,3.03
2022-09-21T21:30:12.360Z,3.06
2022-09-21T21:32:45.002Z,3.22
2022-09-21T21:35:18.211Z,3.27
2022-09-21T21:37:44.801Z,3.30
2022-09-21T21:40:25.069Z,3.63
2022-09-21T21:43:00.093Z,3.65
2022-09-21T21:52:21.999Z,3.85
2022-09-21T21:54:55.161Z,3.73
2022-09-21T21:57:21.688Z,3.59
2022-09-21T22:00:04.012Z,3.46
2022-09-21T22:02:37.135Z,2.47
2022-09-21T22:05:11.008Z,2.22
2022-09-21T22:07:44.025Z,1.75
2022-09-21T22:20:32.968Z,0.98
2022-09-21T22:23:13.002Z,0.80
2022-09-21T22:25:46.060Z,0.78
2022-09-21T22:28:12.594Z,0.85
2022-09-21T22:30:54.002Z,0.65
2022-09-21T22:47:29.958Z,0.92
2022-09-21T22:50:11.032Z,0.91
2022-09-21T22:52:44.054Z,1.02
2022-09-21T22:55:10.610Z,0.87
2022-09-21T22:57:50.988Z,0.84
2022-09-21T23:00:24.110Z,0.89
2022-09-21T23:03:02.028Z,0.93
2022-09-21T23:12:45.953Z,0.93
2022-09-21T23:15:27.430Z,1.02
2022-09-21T23:18:03.143Z,0.93
2022-09-21T23:20:36.030Z,0.94
2022-09-21T23:23:09.130Z,0.89
2022-09-21T23:25:35.700Z,0.90
2022-09-21T23:41:15.971Z,0.71
2022-09-21T23:43:49.146Z,0.64
2022-09-21T23:46:26.024Z,0.60
2022-09-21T23:49:00.121Z,0.61
2022-09-21T23:51:34.993Z,0.66
